sensor_id;sensor_type;location;lat;lon;timestamp;P1;durP1;ratioP1;P2;durP2;ratioP2
76204;SDS011;64986;55.672;37.628;2023-04-24T00:02:12;6.05;;;3.00;;
76204;SDS011;64986;55.672;37.628;2023-04-24T00:04:38;7.00;;;3.38;;
76204;SDS011;64986;55.672;37.628;2023-04-24T00:07:05;6.30;;;3.22;;
76204;SDS011;64986;55.672;37.628;2023-04-24T00:09:32;9.55;;;3.85;;
76204;SDS011;64986;55.672;37.628;2023-04-24T00:11:58;7.25;;;3.75;;
76204;SDS011;64986;55.672;37.628;2023-04-24T00:14:23;6.78;;;3.92;;
76204;SDS011;64986;55.672;37.628;2023-04-24T00:16:49;11.02;;;4.63;;
76204;SDS011;64986;55.672;37.628;2023-04-24T00:19:15;7.18;;;3.60;;
76204;SDS011;64986;55.672;37.628;2023-04-24T00:21:41;6.63;;;4.10;;
76204;SDS011;64986;55.672;37.628;2023-04-24T00:24:07;16.00;;;4.47;;
76204;SDS011;64986;55.672;37.628;2023-04-24T00:26:34;6.75;;;4.15;;
76204;SDS011;64986;55.672;37.628;2023-04-24T00:28:59;7.43;;;4.30;;
76204;SDS011;64986;55.672;37.628;2023-04-24T00:31:25;9.93;;;4.20;;
76204;SDS011;64986;55.672;37.628;2023-04-24T00:33:50;12.68;;;4.63;;
76204;SDS011;64986;55.672;37.628;2023-04-24T00:36:16;8.45;;;4.60;;
76204;SDS011;64986;55.672;37.628;2023-04-24T00:38:42;10.65;;;4.78;;
76204;SDS011;64986;55.672;37.628;2023-04-24T00:41:07;11.50;;;5.03;;
76204;SDS011;64986;55.672;37.628;2023-04-24T00:43:33;7.93;;;4.05;;
76204;SDS011;64986;55.672;37.628;2023-04-24T00:45:58;8.82;;;5.15;;
76204;SDS011;64986;55.672;37.628;2023-04-24T00:48:26;8.35;;;4.65;;
76204;SDS011;64986;55.672;37.628;2023-04-24T00:50:52;7.85;;;4.30;;
76204;SDS011;64986;55.672;37.628;2023-04-24T00:53:18;9.77;;;5.15;;
76204;SDS011;64986;55.672;37.628;2023-04-24T00:55:44;8.88;;;4.70;;
76204;SDS011;64986;55.672;37.628;2023-04-24T00:58:10;8.18;;;4.70;;
76204;SDS011;64986;55.672;37.628;2023-04-24T01:00:36;8.23;;;5.18;;
76204;SDS011;64986;55.672;37.628;2023-04-24T01:03:02;15.77;;;5.72;;
76204;SDS011;64986;55.672;37.628;2023-04-24T01:05:29;10.02;;;5.68;;
76204;SDS011;64986;55.672;37.628;2023-04-24T01:07:55;10.02;;;5.03;;
76204;SDS011;64986;55.672;37.628;2023-04-24T01:10:21;9.73;;;5.88;;
76204;SDS011;64986;55.672;37.628;2023-04-24T01:12:49;18.65;;;6.53;;
76204;SDS011;64986;55.672;37.628;2023-04-24T01:15:15;10.02;;;5.72;;
76204;SDS011;64986;55.672;37.628;2023-04-24T01:17:40;20.63;;;7.10;;
76204;SDS011;64986;55.672;37.628;2023-04-24T01:20:06;11.60;;;6.53;;
76204;SDS011;64986;55.672;37.628;2023-04-24T01:22:33;20.25;;;8.52;;
76204;SDS011;64986;55.672;37.628;2023-04-24T01:24:59;21.70;;;9.55;;
76204;SDS011;64986;55.672;37.628;2023-04-24T01:27:25;15.85;;;6.50;;
76204;SDS011;64986;55.672;37.628;2023-04-24T01:29:50;16.60;;;7.13;;
76204;SDS011;64986;55.672;37.628;2023-04-24T01:32:17;14.60;;;6.82;;
76204;SDS011;64986;55.672;37.628;2023-04-24T01:34:43;8.68;;;5.25;;
76204;SDS011;64986;55.672;37.628;2023-04-24T01:37:09;10.98;;;5.32;;
76204;SDS011;64986;55.672;37.628;2023-04-24T01:39:35;8.05;;;5.25;;
76204;SDS011;64986;55.672;37.628;2023-04-24T01:42:01;7.07;;;5.53;;
76204;SDS011;64986;55.672;37.628;2023-04-24T01:44:27;6.80;;;5.50;;
76204;SDS011;64986;55.672;37.628;2023-04-24T01:46:53;8.73;;;6.13;;
76204;SDS011;64986;55.672;37.628;2023-04-24T01:49:20;10.32;;;6.05;;
76204;SDS011;64986;55.672;37.628;2023-04-24T01:51:45;13.20;;;6.45;;
76204;SDS011;64986;55.672;37.628;2023-04-24T01:54:11;11.02;;;5.13;;
76204;SDS011;64986;55.672;37.628;2023-04-24T01:56:39;14.55;;;7.03;;
76204;SDS011;64986;55.672;37.628;2023-04-24T01:59:07;10.40;;;7.40;;
76204;SDS011;64986;55.672;37.628;2023-04-24T02:01:35;10.13;;;5.93;;
76204;SDS011;64986;55.672;37.628;2023-04-24T02:04:01;11.63;;;6.30;;
76204;SDS011;64986;55.672;37.628;2023-04-24T02:06:27;9.38;;;5.57;;
76204;SDS011;64986;55.672;37.628;2023-04-24T02:08:52;10.20;;;5.60;;
76204;SDS011;64986;55.672;37.628;2023-04-24T02:11:18;8.43;;;5.63;;
76204;SDS011;64986;55.672;37.628;2023-04-24T02:13:44;8.18;;;5.43;;
76204;SDS011;64986;55.672;37.628;2023-04-24T02:16:09;11.20;;;6.05;;
76204;SDS011;64986;55.672;37.628;2023-04-24T02:18:35;11.80;;;6.47;;
76204;SDS011;64986;55.672;37.628;2023-04-24T02:21:01;12.13;;;6.20;;
76204;SDS011;64986;55.672;37.628;2023-04-24T02:23:26;8.95;;;5.93;;
76204;SDS011;64986;55.672;37.628;2023-04-24T02:25:52;9.40;;;6.03;;
76204;SDS011;64986;55.672;37.628;2023-04-24T02:28:18;8.38;;;6.03;;
76204;SDS011;64986;55.672;37.628;2023-04-24T02:30:44;10.88;;;5.97;;
76204;SDS011;64986;55.672;37.628;2023-04-24T02:33:10;11.30;;;6.50;;
76204;SDS011;64986;55.672;37.628;2023-04-24T02:35:36;11.07;;;6.43;;
76204;SDS011;64986;55.672;37.628;2023-04-24T02:38:02;11.38;;;6.22;;
76204;SDS011;64986;55.672;37.628;2023-04-24T02:40:28;9.07;;;5.93;;
76204;SDS011;64986;55.672;37.628;2023-04-24T02:42:54;12.50;;;5.72;;
76204;SDS011;64986;55.672;37.628;2023-04-24T02:45:19;13.07;;;6.15;;
76204;SDS011;64986;55.672;37.628;2023-04-24T02:47:45;10.90;;;5.68;;
76204;SDS011;64986;55.672;37.628;2023-04-24T02:50:10;10.23;;;5.13;;
76204;SDS011;64986;55.672;37.628;2023-04-24T02:52:36;11.35;;;6.18;;
76204;SDS011;64986;55.672;37.628;2023-04-24T02:55:02;14.23;;;6.55;;
76204;SDS011;64986;55.672;37.628;2023-04-24T02:57:27;8.45;;;5.15;;
76204;SDS011;64986;55.672;37.628;2023-04-24T02:59:53;9.95;;;5.35;;
76204;SDS011;64986;55.672;37.628;2023-04-24T03:02:18;11.00;;;6.35;;
76204;SDS011;64986;55.672;37.628;2023-04-24T03:04:45;11.77;;;6.03;;
76204;SDS011;64986;55.672;37.628;2023-04-24T03:07:12;11.80;;;5.50;;
76204;SDS011;64986;55.672;37.628;2023-04-24T03:09:39;9.13;;;6.05;;
76204;SDS011;64986;55.672;37.628;2023-04-24T03:12:05;12.80;;;5.68;;
76204;SDS011;64986;55.672;37.628;2023-04-24T03:14:31;11.10;;;5.75;;
76204;SDS011;64986;55.672;37.628;2023-04-24T03:16:57;12.07;;;6.80;;
76204;SDS011;64986;55.672;37.628;2023-04-24T03:19:22;17.15;;;6.20;;
76204;SDS011;64986;55.672;37.628;2023-04-24T03:21:48;10.43;;;5.85;;
76204;SDS011;64986;55.672;37.628;2023-04-24T03:24:14;13.32;;;7.00;;
76204;SDS011;64986;55.672;37.628;2023-04-24T03:26:40;10.15;;;6.25;;
76204;SDS011;64986;55.672;37.628;2023-04-24T03:29:05;9.55;;;6.22;;
76204;SDS011;64986;55.672;37.628;2023-04-24T03:31:30;17.00;;;7.43;;
76204;SDS011;64986;55.672;37.628;2023-04-24T03:33:56;10.25;;;6.15;;
76204;SDS011;64986;55.672;37.628;2023-04-24T03:36:21;13.65;;;6.68;;
76204;SDS011;64986;55.672;37.628;2023-04-24T03:38:47;14.10;;;7.32;;
76204;SDS011;64986;55.672;37.628;2023-04-24T03:41:12;13.60;;;6.95;;
76204;SDS011;64986;55.672;37.628;2023-04-24T03:43:38;14.32;;;6.72;;
76204;SDS011;64986;55.672;37.628;2023-04-24T03:46:04;14.32;;;7.10;;
76204;SDS011;64986;55.672;37.628;2023-04-24T03:48:30;17.27;;;7.13;;
76204;SDS011;64986;55.672;37.628;2023-04-24T03:50:56;13.52;;;6.82;;
76204;SDS011;64986;55.672;37.628;2023-04-24T03:53:21;12.45;;;5.88;;
76204;SDS011;64986;55.672;37.628;2023-04-24T03:55:47;13.70;;;7.28;;
76204;SDS011;64986;55.672;37.628;2023-04-24T03:58:12;11.20;;;6.18;;
76204;SDS011;64986;55.672;37.628;2023-04-24T04:00:41;10.05;;;5.80;;
76204;SDS011;64986;55.672;37.628;2023-04-24T04:03:07;15.88;;;6.85;;
76204;SDS011;64986;55.672;37.628;2023-04-24T04:05:32;12.73;;;6.18;;
76204;SDS011;64986;55.672;37.628;2023-04-24T04:07:57;11.30;;;6.97;;
76204;SDS011;64986;55.672;37.628;2023-04-24T04:10:23;14.75;;;6.70;;
76204;SDS011;64986;55.672;37.628;2023-04-24T04:12:48;14.02;;;6.57;;
76204;SDS011;64986;55.672;37.628;2023-04-24T04:15:14;14.45;;;6.65;;
76204;SDS011;64986;55.672;37.628;2023-04-24T04:17:39;9.30;;;6.40;;
76204;SDS011;64986;55.672;37.628;2023-04-24T04:20:05;12.75;;;6.40;;
76204;SDS011;64986;55.672;37.628;2023-04-24T04:22:34;11.88;;;6.32;;
76204;SDS011;64986;55.672;37.628;2023-04-24T04:25:00;12.27;;;6.32;;
76204;SDS011;64986;55.672;37.628;2023-04-24T04:27:26;15.75;;;6.88;;
76204;SDS011;64986;55.672;37.628;2023-04-24T04:29:52;15.95;;;6.65;;
76204;SDS011;64986;55.672;37.628;2023-04-24T04:32:17;18.77;;;7.22;;
76204;SDS011;64986;55.672;37.628;2023-04-24T04:34:43;15.45;;;6.38;;
76204;SDS011;64986;55.672;37.628;2023-04-24T04:37:10;15.45;;;6.65;;
76204;SDS011;64986;55.672;37.628;2023-04-24T04:39:37;20.30;;;6.78;;
76204;SDS011;64986;55.672;37.628;2023-04-24T04:42:03;15.52;;;6.60;;
76204;SDS011;64986;55.672;37.628;2023-04-24T04:44:29;12.20;;;6.15;;
76204;SDS011;64986;55.672;37.628;2023-04-24T04:46:55;15.00;;;5.97;;
76204;SDS011;64986;55.672;37.628;2023-04-24T04:49:22;16.38;;;6.47;;
76204;SDS011;64986;55.672;37.628;2023-04-24T04:51:48;12.85;;;6.45;;
76204;SDS011;64986;55.672;37.628;2023-04-24T04:54:15;13.57;;;6.65;;
76204;SDS011;64986;55.672;37.628;2023-04-24T04:56:41;11.65;;;5.90;;
76204;SDS011;64986;55.672;37.628;2023-04-24T04:59:07;11.82;;;5.72;;
76204;SDS011;64986;55.672;37.628;2023-04-24T05:01:32;15.02;;;6.32;;
76204;SDS011;64986;55.672;37.628;2023-04-24T05:03:58;11.52;;;6.20;;
76204;SDS011;64986;55.672;37.628;2023-04-24T05:06:24;23.35;;;8.38;;
76204;SDS011;64986;55.672;37.628;2023-04-24T05:08:50;13.70;;;6.57;;
76204;SDS011;64986;55.672;37.628;2023-04-24T05:11:16;22.05;;;8.27;;
76204;SDS011;64986;55.672;37.628;2023-04-24T05:13:41;23.40;;;8.30;;
76204;SDS011;64986;55.672;37.628;2023-04-24T05:16:07;16.10;;;8.43;;
76204;SDS011;64986;55.672;37.628;2023-04-24T05:18:32;20.63;;;8.20;;
76204;SDS011;64986;55.672;37.628;2023-04-24T05:20:58;19.02;;;8.95;;
76204;SDS011;64986;55.672;37.628;2023-04-24T05:23:23;24.50;;;9.15;;
76204;SDS011;64986;55.672;37.628;2023-04-24T05:25:49;14.60;;;8.43;;
76204;SDS011;64986;55.672;37.628;2023-04-24T05:28:14;18.50;;;8.68;;
76204;SDS011;64986;55.672;37.628;2023-04-24T05:30:40;21.70;;;7.88;;
76204;SDS011;64986;55.672;37.628;2023-04-24T05:33:06;18.58;;;7.97;;
76204;SDS011;64986;55.672;37.628;2023-04-24T05:35:31;22.10;;;8.50;;
76204;SDS011;64986;55.672;37.628;2023-04-24T05:37:57;24.92;;;9.02;;
76204;SDS011;64986;55.672;37.628;2023-04-24T05:40:22;23.75;;;8.50;;
76204;SDS011;64986;55.672;37.628;2023-04-24T05:42:48;17.75;;;8.48;;
76204;SDS011;64986;55.672;37.628;2023-04-24T05:45:13;19.35;;;8.55;;
76204;SDS011;64986;55.672;37.628;2023-04-24T05:47:42;13.32;;;6.95;;
76204;SDS011;64986;55.672;37.628;2023-04-24T05:50:09;24.05;;;8.27;;
76204;SDS011;64986;55.672;37.628;2023-04-24T05:52:35;19.13;;;8.15;;
76204;SDS011;64986;55.672;37.628;2023-04-24T05:55:00;16.30;;;7.15;;
76204;SDS011;64986;55.672;37.628;2023-04-24T05:57:26;24.77;;;8.32;;
76204;SDS011;64986;55.672;37.628;2023-04-24T05:59:51;20.10;;;8.32;;
76204;SDS011;64986;55.672;37.628;2023-04-24T06:02:17;22.08;;;10.30;;
76204;SDS011;64986;55.672;37.628;2023-04-24T06:04:42;20.67;;;8.13;;
76204;SDS011;64986;55.672;37.628;2023-04-24T06:07:10;20.75;;;8.02;;
76204;SDS011;64986;55.672;37.628;2023-04-24T06:09:38;10.80;;;6.45;;
76204;SDS011;64986;55.672;37.628;2023-04-24T06:12:04;11.80;;;7.50;;
76204;SDS011;64986;55.672;37.628;2023-04-24T06:14:29;10.85;;;6.82;;
76204;SDS011;64986;55.672;37.628;2023-04-24T06:16:55;11.57;;;5.72;;
76204;SDS011;64986;55.672;37.628;2023-04-24T06:19:20;16.75;;;6.45;;
76204;SDS011;64986;55.672;37.628;2023-04-24T06:21:45;12.68;;;6.72;;
76204;SDS011;64986;55.672;37.628;2023-04-24T06:24:13;18.52;;;9.07;;
76204;SDS011;64986;55.672;37.628;2023-04-24T06:26:41;29.67;;;8.30;;
76204;SDS011;64986;55.672;37.628;2023-04-24T06:29:06;12.02;;;6.68;;
76204;SDS011;64986;55.672;37.628;2023-04-24T06:31:32;24.25;;;8.43;;
76204;SDS011;64986;55.672;37.628;2023-04-24T06:34:02;15.52;;;8.38;;
76204;SDS011;64986;55.672;37.628;2023-04-24T06:36:28;13.15;;;7.03;;
76204;SDS011;64986;55.672;37.628;2023-04-24T06:38:53;22.15;;;7.43;;
76204;SDS011;64986;55.672;37.628;2023-04-24T06:41:19;17.45;;;7.60;;
76204;SDS011;64986;55.672;37.628;2023-04-24T06:43:45;19.67;;;7.88;;
76204;SDS011;64986;55.672;37.628;2023-04-24T06:46:10;21.92;;;7.65;;
76204;SDS011;64986;55.672;37.628;2023-04-24T06:48:37;14.05;;;8.07;;
76204;SDS011;64986;55.672;37.628;2023-04-24T06:51:02;20.20;;;7.90;;
76204;SDS011;64986;55.672;37.628;2023-04-24T06:53:28;22.52;;;7.45;;
76204;SDS011;64986;55.672;37.628;2023-04-24T06:55:53;9.68;;;6.00;;
76204;SDS011;64986;55.672;37.628;2023-04-24T06:58:19;13.90;;;6.40;;
76204;SDS011;64986;55.672;37.628;2023-04-24T07:00:45;15.77;;;6.70;;
76204;SDS011;64986;55.672;37.628;2023-04-24T07:03:11;12.90;;;6.05;;
76204;SDS011;64986;55.672;37.628;2023-04-24T07:05:36;12.90;;;6.28;;
76204;SDS011;64986;55.672;37.628;2023-04-24T07:08:03;14.35;;;6.00;;
76204;SDS011;64986;55.672;37.628;2023-04-24T07:10:29;11.45;;;6.20;;
76204;SDS011;64986;55.672;37.628;2023-04-24T07:12:55;13.50;;;5.20;;
76204;SDS011;64986;55.672;37.628;2023-04-24T07:15:23;6.13;;;4.22;;
76204;SDS011;64986;55.672;37.628;2023-04-24T07:17:49;6.55;;;4.47;;
76204;SDS011;64986;55.672;37.628;2023-04-24T07:20:15;8.68;;;4.25;;
76204;SDS011;64986;55.672;37.628;2023-04-24T07:22:40;6.38;;;3.90;;
76204;SDS011;64986;55.672;37.628;2023-04-24T07:25:06;9.15;;;4.32;;
76204;SDS011;64986;55.672;37.628;2023-04-24T07:27:33;9.85;;;4.13;;
76204;SDS011;64986;55.672;37.628;2023-04-24T07:29:59;6.63;;;4.63;;
76204;SDS011;64986;55.672;37.628;2023-04-24T07:32:24;8.43;;;4.80;;
76204;SDS011;64986;55.672;37.628;2023-04-24T07:34:50;8.32;;;5.00;;
76204;SDS011;64986;55.672;37.628;2023-04-24T07:37:15;6.75;;;4.30;;
76204;SDS011;64986;55.672;37.628;2023-04-24T07:39:41;10.32;;;4.30;;
76204;SDS011;64986;55.672;37.628;2023-04-24T07:42:06;13.35;;;4.70;;
76204;SDS011;64986;55.672;37.628;2023-04-24T07:44:32;11.73;;;4.60;;
76204;SDS011;64986;55.672;37.628;2023-04-24T07:46:58;5.50;;;4.18;;
76204;SDS011;64986;55.672;37.628;2023-04-24T07:49:23;10.07;;;4.15;;
76204;SDS011;64986;55.672;37.628;2023-04-24T07:51:49;13.18;;;4.65;;
76204;SDS011;64986;55.672;37.628;2023-04-24T07:54:15;6.82;;;3.63;;
76204;SDS011;64986;55.672;37.628;2023-04-24T07:56:41;8.80;;;3.67;;
76204;SDS011;64986;55.672;37.628;2023-04-24T07:59:08;8.45;;;3.83;;
76204;SDS011;64986;55.672;37.628;2023-04-24T08:01:35;5.63;;;3.53;;
76204;SDS011;64986;55.672;37.628;2023-04-24T08:04:01;7.65;;;3.78;;
76204;SDS011;64986;55.672;37.628;2023-04-24T08:06:26;8.40;;;3.70;;
76204;SDS011;64986;55.672;37.628;2023-04-24T08:08:55;6.82;;;3.40;;
76204;SDS011;64986;55.672;37.628;2023-04-24T08:11:21;6.32;;;3.20;;
76204;SDS011;64986;55.672;37.628;2023-04-24T08:13:47;5.78;;;3.10;;
76204;SDS011;64986;55.672;37.628;2023-04-24T08:16:12;6.75;;;3.70;;
76204;SDS011;64986;55.672;37.628;2023-04-24T08:18:38;5.38;;;3.50;;
76204;SDS011;64986;55.672;37.628;2023-04-24T08:21:04;4.97;;;3.42;;
76204;SDS011;64986;55.672;37.628;2023-04-24T08:23:29;5.78;;;3.75;;
76204;SDS011;64986;55.672;37.628;2023-04-24T08:25:55;4.30;;;3.30;;
76204;SDS011;64986;55.672;37.628;2023-04-24T08:28:21;6.85;;;3.58;;
76204;SDS011;64986;55.672;37.628;2023-04-24T08:30:47;7.28;;;3.22;;
76204;SDS011;64986;55.672;37.628;2023-04-24T08:33:13;4.78;;;3.08;;
76204;SDS011;64986;55.672;37.628;2023-04-24T08:35:40;5.15;;;3.60;;
76204;SDS011;64986;55.672;37.628;2023-04-24T08:38:05;5.30;;;3.30;;
76204;SDS011;64986;55.672;37.628;2023-04-24T08:40:31;7.13;;;3.45;;
76204;SDS011;64986;55.672;37.628;2023-04-24T08:42:59;4.65;;;3.45;;
76204;SDS011;64986;55.672;37.628;2023-04-24T08:45:28;6.30;;;3.08;;
76204;SDS011;64986;55.672;37.628;2023-04-24T08:47:53;5.22;;;2.83;;
76204;SDS011;64986;55.672;37.628;2023-04-24T08:50:22;4.53;;;3.28;;
76204;SDS011;64986;55.672;37.628;2023-04-24T08:52:49;4.88;;;3.38;;
76204;SDS011;64986;55.672;37.628;2023-04-24T08:55:16;5.10;;;3.58;;
76204;SDS011;64986;55.672;37.628;2023-04-24T08:57:44;4.97;;;3.22;;
76204;SDS011;64986;55.672;37.628;2023-04-24T09:00:10;5.00;;;3.65;;
76204;SDS011;64986;55.672;37.628;2023-04-24T09:02:36;5.38;;;3.22;;
76204;SDS011;64986;55.672;37.628;2023-04-24T09:05:08;5.75;;;3.30;;
76204;SDS011;64986;55.672;37.628;2023-04-24T09:07:35;7.03;;;3.17;;
76204;SDS011;64986;55.672;37.628;2023-04-24T09:10:04;5.47;;;3.05;;
76204;SDS011;64986;55.672;37.628;2023-04-24T09:12:31;4.45;;;3.08;;
76204;SDS011;64986;55.672;37.628;2023-04-24T09:14:59;4.32;;;3.03;;
76204;SDS011;64986;55.672;37.628;2023-04-24T09:17:25;5.35;;;3.80;;
76204;SDS011;64986;55.672;37.628;2023-04-24T09:19:53;5.35;;;3.35;;
76204;SDS011;64986;55.672;37.628;2023-04-24T09:22:18;5.38;;;3.25;;
76204;SDS011;64986;55.672;37.628;2023-04-24T09:24:45;5.93;;;3.35;;
76204;SDS011;64986;55.672;37.628;2023-04-24T09:27:11;4.57;;;2.92;;
76204;SDS011;64986;55.672;37.628;2023-04-24T09:29:37;5.65;;;3.08;;
76204;SDS011;64986;55.672;37.628;2023-04-24T09:32:21;8.18;;;3.45;;
76204;SDS011;64986;55.672;37.628;2023-04-24T09:34:50;7.10;;;3.70;;
76204;SDS011;64986;55.672;37.628;2023-04-24T09:37:51;4.55;;;3.00;;
76204;SDS011;64986;55.672;37.628;2023-04-24T09:40:18;4.57;;;3.33;;
76204;SDS011;64986;55.672;37.628;2023-04-24T09:42:45;3.42;;;2.88;;
76204;SDS011;64986;55.672;37.628;2023-04-24T09:45:16;6.85;;;3.42;;
76204;SDS011;64986;55.672;37.628;2023-04-24T09:47:42;5.43;;;2.83;;
76204;SDS011;64986;55.672;37.628;2023-04-24T09:50:14;4.38;;;3.25;;
76204;SDS011;64986;55.672;37.628;2023-04-24T09:52:41;6.33;;;3.70;;
76204;SDS011;64986;55.672;37.628;2023-04-24T09:55:21;6.90;;;3.08;;
76204;SDS011;64986;55.672;37.628;2023-04-24T09:57:48;7.45;;;4.15;;
76204;SDS011;64986;55.672;37.628;2023-04-24T10:00:30;4.35;;;3.20;;
76204;SDS011;64986;55.672;37.628;2023-04-24T10:02:57;3.25;;;2.60;;
76204;SDS011;64986;55.672;37.628;2023-04-24T10:05:28;5.38;;;3.30;;
76204;SDS011;64986;55.672;37.628;2023-04-24T10:08:07;4.55;;;3.13;;
76204;SDS011;64986;55.672;37.628;2023-04-24T10:10:35;3.33;;;2.45;;
76204;SDS011;64986;55.672;37.628;2023-04-24T10:13:04;7.15;;;3.53;;
76204;SDS011;64986;55.672;37.628;2023-04-24T10:15:30;6.30;;;3.15;;
76204;SDS011;64986;55.672;37.628;2023-04-24T10:17:57;4.90;;;3.30;;
76204;SDS011;64986;55.672;37.628;2023-04-24T10:20:25;5.00;;;3.65;;
76204;SDS011;64986;55.672;37.628;2023-04-24T10:22:54;5.32;;;2.92;;
76204;SDS011;64986;55.672;37.628;2023-04-24T10:25:21;11.95;;;3.70;;
76204;SDS011;64986;55.672;37.628;2023-04-24T10:27:48;6.93;;;3.70;;
76204;SDS011;64986;55.672;37.628;2023-04-24T10:30:15;4.70;;;3.08;;
76204;SDS011;64986;55.672;37.628;2023-04-24T10:32:42;4.65;;;3.50;;
76204;SDS011;64986;55.672;37.628;2023-04-24T10:35:07;4.13;;;3.00;;
76204;SDS011;64986;55.672;37.628;2023-04-24T10:37:38;5.65;;;3.08;;
76204;SDS011;64986;55.672;37.628;2023-04-24T10:40:06;11.18;;;4.50;;
76204;SDS011;64986;55.672;37.628;2023-04-24T10:42:33;9.07;;;4.00;;
76204;SDS011;64986;55.672;37.628;2023-04-24T10:45:04;4.00;;;2.90;;
76204;SDS011;64986;55.672;37.628;2023-04-24T10:47:39;4.30;;;3.50;;
76204;SDS011;64986;55.672;37.628;2023-04-24T10:50:09;9.32;;;3.28;;
76204;SDS011;64986;55.672;37.628;2023-04-24T10:52:45;6.20;;;3.33;;
76204;SDS011;64986;55.672;37.628;2023-04-24T10:55:12;4.25;;;3.72;;
76204;SDS011;64986;55.672;37.628;2023-04-24T10:57:40;11.10;;;5.65;;
76204;SDS011;64986;55.672;37.628;2023-04-24T11:00:29;7.07;;;3.38;;
76204;SDS011;64986;55.672;37.628;2023-04-24T11:02:54;6.72;;;2.70;;
76204;SDS011;64986;55.672;37.628;2023-04-24T11:05:21;8.73;;;3.42;;
76204;SDS011;64986;55.672;37.628;2023-04-24T11:10:44;3.92;;;3.03;;
76204;SDS011;64986;55.672;37.628;2023-04-24T11:13:17;4.15;;;3.63;;
76204;SDS011;64986;55.672;37.628;2023-04-24T11:15:56;4.93;;;3.10;;
76204;SDS011;64986;55.672;37.628;2023-04-24T11:18:45;5.30;;;3.38;;
76204;SDS011;64986;55.672;37.628;2023-04-24T11:21:18;6.35;;;2.88;;
76204;SDS011;64986;55.672;37.628;2023-04-24T11:23:44;5.30;;;2.75;;
76204;SDS011;64986;55.672;37.628;2023-04-24T11:26:11;6.20;;;3.10;;
76204;SDS011;64986;55.672;37.628;2023-04-24T11:28:43;5.22;;;2.78;;
76204;SDS011;64986;55.672;37.628;2023-04-24T11:34:16;8.75;;;2.88;;
76204;SDS011;64986;55.672;37.628;2023-04-24T11:36:43;4.82;;;2.88;;
76204;SDS011;64986;55.672;37.628;2023-04-24T11:39:10;3.45;;;2.47;;
76204;SDS011;64986;55.672;37.628;2023-04-24T11:41:36;5.13;;;3.53;;
76204;SDS011;64986;55.672;37.628;2023-04-24T11:44:03;4.88;;;3.05;;
76204;SDS011;64986;55.672;37.628;2023-04-24T11:46:32;4.85;;;2.92;;
76204;SDS011;64986;55.672;37.628;2023-04-24T11:48:58;5.03;;;2.80;;
76204;SDS011;64986;55.672;37.628;2023-04-24T11:51:25;5.97;;;3.47;;
76204;SDS011;64986;55.672;37.628;2023-04-24T11:53:52;4.85;;;2.92;;
76204;SDS011;64986;55.672;37.628;2023-04-24T11:56:19;9.25;;;4.00;;
76204;SDS011;64986;55.672;37.628;2023-04-24T11:58:46;4.55;;;3.15;;
76204;SDS011;64986;55.672;37.628;2023-04-24T12:01:13;3.72;;;2.92;;
76204;SDS011;64986;55.672;37.628;2023-04-24T12:03:38;3.40;;;2.88;;
76204;SDS011;64986;55.672;37.628;2023-04-24T12:06:08;4.75;;;2.83;;
76204;SDS011;64986;55.672;37.628;2023-04-24T12:08:34;3.55;;;3.03;;
76204;SDS011;64986;55.672;37.628;2023-04-24T12:11:00;8.40;;;2.75;;
76204;SDS011;64986;55.672;37.628;2023-04-24T12:13:27;4.47;;;2.78;;
76204;SDS011;64986;55.672;37.628;2023-04-24T12:15:52;5.18;;;2.58;;
76204;SDS011;64986;55.672;37.628;2023-04-24T12:18:18;5.10;;;2.58;;
76204;SDS011;64986;55.672;37.628;2023-04-24T12:20:43;3.70;;;2.60;;
76204;SDS011;64986;55.672;37.628;2023-04-24T12:23:09;4.85;;;2.50;;
76204;SDS011;64986;55.672;37.628;2023-04-24T12:25:34;3.08;;;2.55;;
76204;SDS011;64986;55.672;37.628;2023-04-24T12:30:29;4.25;;;3.00;;
76204;SDS011;64986;55.672;37.628;2023-04-24T12:32:59;5.97;;;2.92;;
76204;SDS011;64986;55.672;37.628;2023-04-24T12:35:26;2.80;;;2.20;;
76204;SDS011;64986;55.672;37.628;2023-04-24T12:37:53;9.48;;;2.90;;
76204;SDS011;64986;55.672;37.628;2023-04-24T12:40:20;2.80;;;2.33;;
76204;SDS011;64986;55.672;37.628;2023-04-24T12:42:50;3.97;;;2.13;;
76204;SDS011;64986;55.672;37.628;2023-04-24T12:45:16;3.47;;;2.03;;
76204;SDS011;64986;55.672;37.628;2023-04-24T12:47:44;5.93;;;2.78;;
76204;SDS011;64986;55.672;37.628;2023-04-24T12:50:11;5.30;;;2.80;;
76204;SDS011;64986;55.672;37.628;2023-04-24T12:52:38;3.80;;;2.38;;
76204;SDS011;64986;55.672;37.628;2023-04-24T12:55:04;4.13;;;2.55;;
76204;SDS011;64986;55.672;37.628;2023-04-24T12:57:33;5.32;;;2.72;;
76204;SDS011;64986;55.672;37.628;2023-04-24T12:59:59;6.90;;;2.90;;
76204;SDS011;64986;55.672;37.628;2023-04-24T13:02:26;3.88;;;2.72;;
76204;SDS011;64986;55.672;37.628;2023-04-24T13:04:54;3.60;;;2.10;;
76204;SDS011;64986;55.672;37.628;2023-04-24T13:07:20;3.95;;;2.10;;
76204;SDS011;64986;55.672;37.628;2023-04-24T13:09:47;3.42;;;2.22;;
76204;SDS011;64986;55.672;37.628;2023-04-24T13:12:13;5.03;;;2.50;;
76204;SDS011;64986;55.672;37.628;2023-04-24T13:14:39;5.57;;;2.67;;
76204;SDS011;64986;55.672;37.628;2023-04-24T13:17:05;3.20;;;2.40;;
76204;SDS011;64986;55.672;37.628;2023-04-24T13:19:39;3.47;;;2.17;;
76204;SDS011;64986;55.672;37.628;2023-04-24T13:22:06;4.57;;;2.83;;
76204;SDS011;64986;55.672;37.628;2023-04-24T13:24:33;3.15;;;2.00;;
76204;SDS011;64986;55.672;37.628;2023-04-24T13:26:59;5.57;;;3.05;;
76204;SDS011;64986;55.672;37.628;2023-04-24T13:29:25;5.78;;;2.83;;
76204;SDS011;64986;55.672;37.628;2023-04-24T13:31:52;3.70;;;2.25;;
76204;SDS011;64986;55.672;37.628;2023-04-24T13:34:23;5.30;;;2.83;;
76204;SDS011;64986;55.672;37.628;2023-04-24T13:36:53;4.65;;;2.50;;
76204;SDS011;64986;55.672;37.628;2023-04-24T13:39:20;4.38;;;3.25;;
76204;SDS011;64986;55.672;37.628;2023-04-24T13:41:47;4.30;;;3.58;;
76204;SDS011;64986;55.672;37.628;2023-04-24T13:44:13;2.72;;;2.15;;
76204;SDS011;64986;55.672;37.628;2023-04-24T13:46:40;4.47;;;2.30;;
76204;SDS011;64986;55.672;37.628;2023-04-24T13:49:05;2.38;;;2.10;;
76204;SDS011;64986;55.672;37.628;2023-04-24T13:51:31;3.92;;;2.83;;
76204;SDS011;64986;55.672;37.628;2023-04-24T13:53:57;5.32;;;2.30;;
76204;SDS011;64986;55.672;37.628;2023-04-24T13:56:23;4.70;;;2.30;;
76204;SDS011;64986;55.672;37.628;2023-04-24T13:58:48;4.72;;;2.40;;
76204;SDS011;64986;55.672;37.628;2023-04-24T14:01:14;4.07;;;2.38;;
76204;SDS011;64986;55.672;37.628;2023-04-24T14:03:41;3.85;;;2.40;;
76204;SDS011;64986;55.672;37.628;2023-04-24T14:06:08;4.30;;;2.55;;
76204;SDS011;64986;55.672;37.628;2023-04-24T14:08:33;3.92;;;2.17;;
76204;SDS011;64986;55.672;37.628;2023-04-24T14:10:59;5.45;;;2.55;;
76204;SDS011;64986;55.672;37.628;2023-04-24T14:13:25;4.85;;;2.47;;
76204;SDS011;64986;55.672;37.628;2023-04-24T14:15:50;3.63;;;2.25;;
76204;SDS011;64986;55.672;37.628;2023-04-24T14:18:17;2.50;;;2.20;;
76204;SDS011;64986;55.672;37.628;2023-04-24T14:20:43;3.00;;;2.20;;
76204;SDS011;64986;55.672;37.628;2023-04-24T14:23:09;3.35;;;2.50;;
76204;SDS011;64986;55.672;37.628;2023-04-24T14:25:34;3.05;;;2.75;;
76204;SDS011;64986;55.672;37.628;2023-04-24T14:28:00;2.83;;;2.00;;
76204;SDS011;64986;55.672;37.628;2023-04-24T14:30:26;2.65;;;2.20;;
76204;SDS011;64986;55.672;37.628;2023-04-24T14:32:51;2.42;;;1.83;;
76204;SDS011;64986;55.672;37.628;2023-04-24T14:35:17;4.00;;;2.45;;